Map

Track Data

SID SEASON NUMBER BASIN SUBBASIN NAME ISO_TIME NATURE LAT LON WMO_WIND WMO_PRES WMO_AGENCY TRACK_TYPE DIST2LAND LANDFALL IFLAG USA_AGENCY USA_ATCF_ID USA_LAT USA_LON USA_RECORD USA_STATUS USA_WIND USA_PRES USA_SSHS USA_R34_NE USA_R34_SE USA_R34_SW USA_R34_NW USA_R50_NE USA_R50_SE USA_R50_SW USA_R50_NW USA_R64_NE USA_R64_SE USA_R64_SW USA_R64_NW USA_POCI USA_ROCI USA_RMW USA_EYE TOKYO_LAT TOKYO_LON TOKYO_GRADE TOKYO_WIND TOKYO_PRES TOKYO_R50_DIR TOKYO_R50_LONG TOKYO_R50_SHORT TOKYO_R30_DIR TOKYO_R30_LONG TOKYO_R30_SHORT TOKYO_LAND CMA_LAT CMA_LON CMA_CAT CMA_WIND CMA_PRES HKO_LAT HKO_LON HKO_CAT HKO_WIND HKO_PRES NEWDELHI_LAT NEWDELHI_LON NEWDELHI_GRADE NEWDELHI_WIND NEWDELHI_PRES NEWDELHI_CI NEWDELHI_DP NEWDELHI_POCI REUNION_LAT REUNION_LON REUNION_TYPE REUNION_WIND REUNION_PRES REUNION_TNUM REUNION_CI REUNION_RMW REUNION_R34_NE REUNION_R34_SE REUNION_R34_SW REUNION_R34_NW REUNION_R50_NE REUNION_R50_SE REUNION_R50_SW REUNION_R50_NW REUNION_R64_NE REUNION_R64_SE REUNION_R64_SW REUNION_R64_NW BOM_LAT BOM_LON BOM_TYPE BOM_WIND BOM_PRES BOM_TNUM BOM_CI BOM_RMW BOM_R34_NE BOM_R34_SE BOM_R34_SW BOM_R34_NW BOM_R50_NE BOM_R50_SE BOM_R50_SW BOM_R50_NW BOM_R64_NE BOM_R64_SE BOM_R64_SW BOM_R64_NW BOM_ROCI BOM_POCI BOM_EYE BOM_POS_METHOD BOM_PRES_METHOD NADI_LAT NADI_LON NADI_CAT NADI_WIND NADI_PRES WELLINGTON_LAT WELLINGTON_LON WELLINGTON_WIND WELLINGTON_PRES DS824_LAT DS824_LON DS824_STAGE DS824_WIND DS824_PRES TD9636_LAT TD9636_LON TD9636_STAGE TD9636_WIND TD9636_PRES TD9635_LAT TD9635_LON TD9635_WIND TD9635_PRES TD9635_ROCI NEUMANN_LAT NEUMANN_LON NEUMANN_CLASS NEUMANN_WIND NEUMANN_PRES MLC_LAT MLC_LON MLC_CLASS MLC_WIND MLC_PRES USA_GUST BOM_GUST BOM_GUST_PER REUNION_GUST REUNION_GUST_PER USA_SEAHGT USA_SEARAD_NE USA_SEARAD_SE USA_SEARAD_SW USA_SEARAD_NW STORM_SPEED STORM_DIR
1948290N15120 1948 77 WP MM OLGA 1948-10-15 18:00:00 NR 15.3000 120.000 main 0 0 __________O___ -1 15.3000 120.000 2 7 309
1948290N15120 1948 77 WP MM OLGA 1948-10-15 21:00:00 NR 15.5139 119.728 main 24 24 __________P___ -1 15.5139 119.728 2 7 308
1948290N15120 1948 77 WP MM OLGA 1948-10-16 00:00:00 NR 15.7222 119.435 main 46 39 __________P___ -1 15.7222 119.435 2 7 304
1948290N15120 1948 77 WP MM OLGA 1948-10-16 03:00:00 NR 15.9194 119.099 main 65 65 __________P___ -1 15.9194 119.099 2 8 298
1948290N15120 1948 77 WP MM OLGA 1948-10-16 06:00:00 NR 16.1000 118.700 main 107 107 __________O___ -1 16.1000 118.700 2 9 292
1948290N15120 1948 77 WP MM OLGA 1948-10-16 09:00:00 NR 16.2591 118.224 main 163 163 __________P___ -1 16.2591 118.224 2 11 300
1948290N15120 1948 77 WP MM OLGA 1948-10-16 12:00:00 TS 16.6546 117.697 main 227 227 O________OPO__ jtwc_wp WP201948 17.0000 117.700 50 0 17.0000 117.700 TC 50 16.3955 117.695 2 17.0000 117.700 50 995 180 11 299
1948290N15120 1948 77 WP MM OLGA 1948-10-16 15:00:00 TS 16.8037 117.209 main 281 281 P________PPP__ WP201948 17.0002 117.253 50 0 17.0002 117.253 TC 50 16.5090 117.143 2 17.0002 117.253 50 995 180 9 284
1948290N15120 1948 77 WP MM OLGA 1948-10-16 18:00:00 TS 16.8769 116.738 main 335 335 O________OOO__ jtwc_wp WP201948 17.0000 116.800 50 0 17.0000 116.800 TC 50 16.6000 116.600 2 50 17.0000 116.800 50 995 180 9 277
1948290N15120 1948 77 WP MM OLGA 1948-10-16 21:00:00 TS 16.9198 116.281 main 376 376 P________PPP__ WP201948 16.9999 116.343 50 0 16.9999 116.343 TC 50 16.6794 116.098 2 50 16.9999 116.343 50 994 180 9 274
1948290N15120 1948 77 WP MM OLGA 1948-10-17 00:00:00 TS 16.9343 115.828 main 428 428 O________OPO__ jtwc_wp WP201948 17.0000 115.900 50 0 17.0000 115.900 TC 50 16.7371 115.612 2 50 17.0000 115.900 50 994 180 8 271
1948290N15120 1948 77 WP MM OLGA 1948-10-17 03:00:00 TS 16.9383 115.411 main 469 469 P________PPP__ WP201948 16.9923 115.500 50 0 16.9923 115.500 TC 50 16.7763 115.145 2 50 16.9923 115.500 50 994 180 8 271
1948290N15120 1948 77 WP MM OLGA 1948-10-17 06:00:00 TS 16.9500 115.000 main 512 478 O________OOO__ jtwc_wp WP201948 17.0000 115.100 50 0 17.0000 115.100 TC 50 16.8000 114.700 2 50 17.0000 115.100 50 994 180 8 273
1948290N15120 1948 77 WP MM OLGA 1948-10-17 09:00:00 TS 16.9864 114.556 main 478 430 P________PPP__ WP201948 17.0425 114.650 52 0 17.0425 114.650 TC 52 16.8180 114.274 2 51 17.0425 114.650 52 994 180 8 275
1948290N15120 1948 77 WP MM OLGA 1948-10-17 12:00:00 TS 17.0305 114.117 main 430 388 O________OPO__ jtwc_wp WP201948 17.1000 114.200 55 0 17.1000 114.200 TC 55 16.8220 113.870 2 52 17.1000 114.200 55 994 180 8 276
1948290N15120 1948 77 WP MM OLGA 1948-10-17 15:00:00 TS 17.0718 113.709 main 388 352 P________PPP__ WP201948 17.1574 113.785 52 0 17.1574 113.785 TC 52 16.8150 113.481 2 53 17.1574 113.785 52 994 180 8 275
1948290N15120 1948 77 WP MM OLGA 1948-10-17 18:00:00 TS 17.1000 113.325 main 352 325 O________OOO__ jtwc_wp WP201948 17.2000 113.400 50 0 17.2000 113.400 TC 50 16.8000 113.100 2 55 17.2000 113.400 50 995 180 7 272
1948290N15120 1948 77 WP MM OLGA 1948-10-17 21:00:00 TS 17.0934 112.963 main 325 292 P________PPP__ WP201948 17.1999 113.050 52 0 17.1999 113.050 TC 52 16.7740 112.701 2 55 17.1999 113.050 52 995 180 7 269
1948290N15120 1948 77 WP MM OLGA 1948-10-18 00:00:00 TS 17.0856 112.603 main 292 261 O________OPO__ jtwc_wp WP201948 17.2000 112.700 55 0 17.2000 112.700 TC 55 16.7424 112.312 2 55 17.2000 112.700 55 995 180 7 272
1948290N15120 1948 77 WP MM OLGA 1948-10-18 03:00:00 TS 17.1161 112.222 main 261 232 P________PPP__ WP201948 17.2499 112.315 55 0 17.2499 112.315 TC 55 16.7147 111.942 2 55 17.2499 112.315 55 994 150 7 275
1948290N15120 1948 77 WP MM OLGA 1948-10-18 06:00:00 TS 17.1500 111.825 main 223 204 O________OOO__ jtwc_wp WP201948 17.3000 111.900 55 0 17.3000 111.900 TC 55 16.7000 111.600 2 55 17.3000 111.900 55 994 120 8 272
1948290N15120 1948 77 WP MM OLGA 1948-10-18 09:00:00 TS 17.1495 111.409 main 207 171 P________PPP__ WP201948 17.3000 111.450 52 0 17.3000 111.450 TC 52 16.6982 111.288 2 53 17.3000 111.450 52 994 120 8 270
1948290N15120 1948 77 WP MM OLGA 1948-10-18 12:00:00 TS 17.1530 111.001 main 171 153 O________OPO__ jtwc_wp WP201948 17.3000 111.000 50 0 17.3000 111.000 TC 50 16.7122 111.005 2 52 17.3000 111.000 50 995 120 7 273
1948290N15120 1948 77 WP MM OLGA 1948-10-18 15:00:00 TS 17.1929 110.653 main 153 128 P________PPP__ WP201948 17.3422 110.622 45 0 17.3422 110.622 TC 45 16.7451 110.744 2 51 17.3422 110.622 45 995 120 7 277
1948290N15120 1948 77 WP MM OLGA 1948-10-18 18:00:00 TS 17.2400 110.280 main 128 101 O________OOO__ jtwc_wp WP201948 17.4000 110.200 40 0 17.4000 110.200 TC 40 16.8000 110.500 2 50 17.4000 110.200 40 996 120 9 275
1948290N15120 1948 77 WP MM OLGA 1948-10-18 21:00:00 TS 17.2703 109.741 main 100 91 P________PPP__ WP201948 17.4206 109.503 40 0 17.4206 109.503 TC 40 16.8783 110.266 2 47 17.4531 109.643 40 997 150 10 278
1948290N15120 1948 77 WP MM OLGA 1948-10-19 00:00:00 TS 17.3688 109.260 main 91 70 O________OPO__ jtwc_wp WP201948 17.5000 109.000 40 0 17.5000 109.000 TC 40 16.9752 110.040 2 45 17.5000 109.000 40 998 180 6 308
1948290N15120 1948 77 WP MM OLGA 1948-10-19 03:00:00 TS 17.6228 109.261 main 70 33 P________PP___ WP201948 17.7574 109.122 37 0 17.7574 109.122 TC 37 17.0846 109.819 2 42 6 24
1948290N15120 1948 77 WP MM OLGA 1948-10-19 06:00:00 TS 17.9111 109.511 main 33 15 O________OO___ jtwc_wp WP201948 18.0000 109.500 35 0 18.0000 109.500 TC 35 17.2000 109.600 2 40 8 55
1948290N15120 1948 77 WP MM OLGA 1948-10-19 09:00:00 TS 18.0744 109.938 main 23 23 P________P____ WP201948 18.0744 109.938 32 -1 18.0744 109.938 TC 32 2 5 79
1948290N15120 1948 77 WP MM OLGA 1948-10-19 12:00:00 TS 18.0000 110.000 main 38 30 O________O____ jtwc_wp WP201948 18.0000 110.000 30 -1 18.0000 110.000 TC 30 2 7 247
1948290N15120 1948 77 WP MM OLGA 1948-10-19 15:00:00 TS 17.7901 109.249 main 54 54 P________P____ WP201948 17.7901 109.249 25 -1 17.7901 109.249 TC 25 2 20 255
1948290N15120 1948 77 WP MM OLGA 1948-10-19 18:00:00 TS 17.5000 108.000 main 105 O________O____ jtwc_wp WP201948 17.5000 108.000 20 -1 17.5000 108.000 TC 20 25 256

Digital Typhoon Data and Search

About IBTrACS Database

This database is a web-friendly format of International Best Track Archive for Climate Stewardship (IBTrACS), a global best track data archive curated by NOAA dating back to 1842.

Updated: 2021-10-21